createdAt,value
2018-09-08T00:00:57.335Z,0
2018-09-08T00:01:58.761Z,0
2018-09-08T00:03:00.160Z,0
2018-09-08T00:04:01.543Z,0
2018-09-08T00:05:02.997Z,0
2018-09-08T00:06:04.487Z,0
2018-09-08T00:07:05.874Z,0
2018-09-08T00:08:07.280Z,0
2018-09-08T00:09:08.732Z,0
2018-09-08T00:10:10.124Z,0
2018-09-08T00:11:11.566Z,0
2018-09-08T00:12:12.962Z,0
2018-09-08T00:13:14.349Z,0
2018-09-08T00:14:15.742Z,0
2018-09-08T00:15:17.140Z,0
2018-09-08T00:16:18.545Z,0
2018-09-08T00:17:19.947Z,0
2018-09-08T00:18:21.379Z,0
2018-09-08T00:19:22.823Z,0
2018-09-08T00:20:24.296Z,0
2018-09-08T00:21:25.716Z,0
2018-09-08T00:22:27.098Z,0
2018-09-08T00:23:28.557Z,0
2018-09-08T00:24:29.971Z,0
2018-09-08T00:25:31.389Z,0
2018-09-08T00:26:32.790Z,0
2018-09-08T00:27:34.287Z,0
2018-09-08T00:28:35.678Z,0
2018-09-08T00:29:37.128Z,0
2018-09-08T00:30:38.515Z,0
2018-09-08T00:31:39.956Z,0
2018-09-08T00:32:41.345Z,0
2018-09-08T00:33:42.772Z,0
2018-09-08T00:34:44.157Z,0
2018-09-08T00:35:45.588Z,0
2018-09-08T00:36:47.020Z,0
2018-09-08T00:37:48.420Z,0
2018-09-08T00:38:49.803Z,0
2018-09-08T00:39:51.236Z,0
2018-09-08T00:40:52.654Z,0
2018-09-08T00:41:54.038Z,0
2018-09-08T00:42:55.520Z,0
2018-09-08T00:43:56.940Z,0
2018-09-08T00:44:58.338Z,0
2018-09-08T00:45:59.875Z,0
2018-09-08T00:47:01.187Z,0
2018-09-08T00:48:02.581Z,0
2018-09-08T00:49:04.020Z,0
2018-09-08T00:50:05.408Z,0
2018-09-08T00:51:06.800Z,0
2018-09-08T00:52:08.190Z,0
2018-09-08T00:53:09.577Z,0
2018-09-08T00:54:11.007Z,0
2018-09-08T00:55:12.393Z,0
2018-09-08T00:56:13.837Z,0
2018-09-08T00:57:15.291Z,0
2018-09-08T00:58:16.677Z,0
2018-09-08T00:59:18.095Z,0
2018-09-08T01:00:19.511Z,0
2018-09-08T01:01:20.901Z,0
2018-09-08T01:02:22.288Z,0
2018-09-08T01:03:23.731Z,0
2018-09-08T01:04:25.139Z,0
2018-09-08T01:05:26.598Z,0
2018-09-08T01:06:28.025Z,0
2018-09-08T01:07:29.413Z,0
2018-09-08T01:08:30.796Z,0
2018-09-08T01:09:32.208Z,0
2018-09-08T01:10:33.656Z,0
2018-09-08T01:11:35.059Z,0
2018-09-08T01:12:36.565Z,0
2018-09-08T01:13:37.802Z,0
2018-09-08T01:14:39.211Z,0
2018-09-08T01:15:40.649Z,0
2018-09-08T01:16:42.068Z,0
2018-09-08T01:17:43.508Z,0
2018-09-08T01:18:44.894Z,0
2018-09-08T01:19:46.282Z,0
2018-09-08T01:20:47.644Z,0
2018-09-08T01:21:49.029Z,0
2018-09-08T01:22:50.519Z,0
2018-09-08T01:23:51.905Z,0
2018-09-08T01:24:53.319Z,0
2018-09-08T01:25:54.785Z,0
2018-09-08T01:26:56.173Z,0
2018-09-08T01:27:57.634Z,0
2018-09-08T01:28:59.045Z,0
2018-09-08T01:30:00.454Z,0
2018-09-08T01:31:01.897Z,0
2018-09-08T01:32:03.291Z,0
2018-09-08T01:33:04.685Z,0
2018-09-08T01:34:06.085Z,0
2018-09-08T01:35:07.537Z,0
2018-09-08T01:36:08.954Z,0
2018-09-08T01:37:10.368Z,0
2018-09-08T01:38:11.800Z,0
2018-09-08T01:39:13.186Z,0
2018-09-08T01:40:14.628Z,0
2018-09-08T01:41:16.130Z,0
2018-09-08T01:42:17.589Z,0
2018-09-08T01:43:19.008Z,0
2018-09-08T01:44:20.395Z,0
2018-09-08T01:45:21.843Z,0
2018-09-08T01:46:23.237Z,0
2018-09-08T01:47:24.658Z,0
2018-09-08T01:48:26.041Z,0
2018-09-08T01:49:27.438Z,0
2018-09-08T01:50:28.822Z,0
2018-09-08T01:51:30.217Z,0
2018-09-08T01:52:31.638Z,0
2018-09-08T01:53:33.088Z,0
2018-09-08T01:54:34.577Z,0
2018-09-08T01:55:35.965Z,0
2018-09-08T01:56:37.358Z,0
2018-09-08T01:57:38.742Z,0
2018-09-08T01:58:40.243Z,0
2018-09-08T01:59:41.676Z,0
2018-09-08T02:00:43.065Z,0
2018-09-08T02:01:44.544Z,0
2018-09-08T02:02:45.932Z,0
2018-09-08T02:03:47.323Z,0
2018-09-08T02:04:48.707Z,0
2018-09-08T02:05:50.130Z,0
2018-09-08T02:06:51.518Z,0
2018-09-08T02:07:52.912Z,0
2018-09-08T02:08:54.301Z,0
2018-09-08T02:09:55.739Z,0
2018-09-08T02:10:57.149Z,0
2018-09-08T02:11:58.537Z,0
2018-09-08T02:12:59.925Z,0
2018-09-08T02:14:01.366Z,0
2018-09-08T02:15:02.807Z,0
2018-09-08T02:16:04.208Z,0
2018-09-08T02:17:05.687Z,0
2018-09-08T02:18:07.104Z,0
2018-09-08T02:19:08.486Z,0
2018-09-08T02:20:09.959Z,0
2018-09-08T02:21:11.285Z,0
2018-09-08T02:22:12.691Z,0
2018-09-08T02:23:14.099Z,0
2018-09-08T02:24:15.487Z,0
2018-09-08T02:25:16.976Z,0
2018-09-08T02:26:18.369Z,0
2018-09-08T02:27:19.781Z,0
2018-09-08T02:28:21.214Z,0
2018-09-08T02:29:22.601Z,0
2018-09-08T02:30:24.042Z,0
2018-09-08T02:31:25.431Z,0
2018-09-08T02:32:26.891Z,0
2018-09-08T02:33:28.316Z,0
2018-09-08T02:34:29.707Z,0
2018-09-08T02:35:31.158Z,0
2018-09-08T02:36:32.612Z,0
2018-09-08T02:37:34.033Z,0
2018-09-08T02:38:35.423Z,0
2018-09-08T02:39:36.823Z,0
2018-09-08T02:40:38.208Z,0
2018-09-08T02:41:39.599Z,0
2018-09-08T02:42:41.046Z,0
2018-09-08T02:43:42.433Z,0
2018-09-08T02:44:43.881Z,0
2018-09-08T02:45:45.334Z,0
2018-09-08T02:46:46.805Z,0
2018-09-08T02:47:48.200Z,0
2018-09-08T02:48:49.615Z,0
2018-09-08T02:49:51.000Z,0
2018-09-08T02:50:52.432Z,0
2018-09-08T02:51:53.870Z,0
2018-09-08T02:52:55.203Z,0
2018-09-08T02:53:56.592Z,0
2018-09-08T02:54:57.985Z,0
2018-09-08T02:55:59.392Z,0
2018-09-08T02:57:00.783Z,0
2018-09-08T02:58:02.241Z,0
2018-09-08T02:59:03.667Z,0
2018-09-08T03:00:05.111Z,0
2018-09-08T03:01:06.502Z,0
2018-09-08T03:02:07.932Z,0
2018-09-08T03:03:09.321Z,0
2018-09-08T03:04:10.799Z,0
2018-09-08T03:05:12.204Z,0
2018-09-08T03:06:13.604Z,0
2018-09-08T03:07:15.039Z,0
2018-09-08T03:08:16.491Z,0
2018-09-08T03:09:17.899Z,0
2018-09-08T03:10:19.345Z,0
2018-09-08T03:11:20.731Z,0
2018-09-08T03:12:22.186Z,0
2018-09-08T03:13:23.582Z,0
2018-09-08T03:14:24.995Z,0
2018-09-08T03:15:26.386Z,0
2018-09-08T03:16:27.770Z,0
2018-09-08T03:17:29.231Z,0
2018-09-08T03:18:30.650Z,0
2018-09-08T03:19:32.038Z,0
2018-09-08T03:20:33.426Z,0
2018-09-08T03:21:34.873Z,0
2018-09-08T03:22:36.340Z,0
2018-09-08T03:23:37.759Z,0
2018-09-08T03:24:39.195Z,0
2018-09-08T03:25:40.589Z,0
2018-09-08T03:26:42.029Z,0
2018-09-08T03:27:43.497Z,0
2018-09-08T03:28:44.910Z,0
2018-09-08T03:29:46.319Z,0
2018-09-08T03:30:47.802Z,0
2018-09-08T03:31:49.329Z,0
2018-09-08T03:32:50.714Z,0
2018-09-08T03:33:52.136Z,0
2018-09-08T03:34:53.524Z,0
2018-09-08T03:35:54.920Z,0
2018-09-08T03:36:56.319Z,0
2018-09-08T03:37:57.704Z,0
2018-09-08T03:38:59.152Z,0
2018-09-08T03:40:00.637Z,0
2018-09-08T03:41:02.024Z,0
2018-09-08T03:42:03.412Z,0
2018-09-08T03:43:04.871Z,0
2018-09-08T03:44:06.263Z,0
2018-09-08T03:45:07.671Z,0
2018-09-08T03:46:09.071Z,0
2018-09-08T03:47:10.493Z,0
2018-09-08T03:48:11.884Z,0
2018-09-08T03:49:13.272Z,0
2018-09-08T03:50:14.731Z,0
2018-09-08T03:51:16.124Z,0
2018-09-08T03:52:17.510Z,0
2018-09-08T03:53:18.897Z,0
2018-09-08T03:54:20.317Z,0
2018-09-08T03:55:21.704Z,0
2018-09-08T03:56:23.125Z,0
2018-09-08T03:57:24.554Z,0
2018-09-08T03:58:25.994Z,0
2018-09-08T03:59:27.405Z,0
2018-09-08T04:00:28.841Z,0
2018-09-08T04:01:30.247Z,0
2018-09-08T04:02:31.630Z,0
2018-09-08T04:03:33.067Z,0
2018-09-08T04:04:34.514Z,0
2018-09-08T04:05:35.958Z,0
2018-09-08T04:06:37.388Z,0
2018-09-08T04:07:38.840Z,0
2018-09-08T04:08:40.264Z,0
2018-09-08T04:09:41.701Z,0
2018-09-08T04:10:43.231Z,0
2018-09-08T04:11:44.732Z,0
2018-09-08T04:12:46.224Z,0
2018-09-08T04:13:47.669Z,0
2018-09-08T04:14:49.062Z,0
2018-09-08T04:15:50.521Z,0
2018-09-08T04:16:52.008Z,0
2018-09-08T04:17:53.447Z,0
2018-09-08T04:18:54.871Z,0
2018-09-08T04:19:56.285Z,0
2018-09-08T04:20:57.740Z,0
2018-09-08T04:21:59.185Z,0
2018-09-08T04:23:00.613Z,0
2018-09-08T04:24:02.049Z,0
2018-09-08T04:25:03.437Z,0
2018-09-08T04:26:04.846Z,0
2018-09-08T04:27:06.260Z,0
2018-09-08T04:28:07.697Z,0
2018-09-08T04:29:09.161Z,4
2018-09-08T04:30:10.565Z,4
2018-09-08T04:31:11.947Z,0
2018-09-08T04:32:13.351Z,0
2018-09-08T04:33:14.746Z,0
2018-09-08T04:34:16.166Z,4
2018-09-08T04:35:17.601Z,4
2018-09-08T04:36:19.043Z,0
2018-09-08T04:37:20.435Z,4
2018-09-08T04:38:21.820Z,4
2018-09-08T04:39:23.298Z,4
2018-09-08T04:40:24.702Z,4
2018-09-08T04:41:26.091Z,8
2018-09-08T04:42:27.503Z,8
2018-09-08T04:43:31.644Z,8
2018-09-08T04:44:33.054Z,12
2018-09-08T04:45:36.518Z,16
2018-09-08T04:46:37.998Z,12
2018-09-08T04:47:39.431Z,16
2018-09-08T04:48:40.897Z,20
2018-09-08T04:49:42.288Z,24
2018-09-08T04:50:43.810Z,24
2018-09-08T04:51:45.212Z,28
2018-09-08T04:52:46.652Z,32
2018-09-08T04:53:48.072Z,36
2018-09-08T04:54:49.620Z,40
2018-09-08T04:55:51.083Z,48
2018-09-08T04:56:52.536Z,56
2018-09-08T04:57:53.928Z,56
2018-09-08T04:58:55.321Z,68
2018-09-08T04:59:56.779Z,72
2018-09-08T05:00:58.168Z,76
2018-09-08T05:01:59.627Z,84
2018-09-08T05:03:01.102Z,92
2018-09-08T05:04:04.458Z,100
2018-09-08T05:05:07.847Z,108
2018-09-08T05:06:09.235Z,116
2018-09-08T05:07:10.624Z,128
2018-09-08T05:08:12.060Z,136
2018-09-08T05:09:13.523Z,140
2018-09-08T05:10:14.921Z,148
2018-09-08T05:11:16.367Z,160
2018-09-08T05:12:17.753Z,168
2018-09-08T05:13:19.145Z,180
2018-09-08T05:14:20.580Z,192
2018-09-08T05:15:21.974Z,196
2018-09-08T05:16:23.777Z,208
2018-09-08T05:17:25.256Z,216
2018-09-08T05:18:26.655Z,228
2018-09-08T05:19:28.090Z,236
2018-09-08T05:20:29.495Z,248
2018-09-08T05:21:30.954Z,256
2018-09-08T05:22:32.343Z,264
2018-09-08T05:23:33.755Z,276
2018-09-08T05:24:35.187Z,284
2018-09-08T05:25:36.615Z,296
2018-09-08T05:26:38.097Z,304
2018-09-08T05:27:39.511Z,312
2018-09-08T05:28:40.953Z,324
2018-09-08T05:29:42.342Z,332
2018-09-08T05:30:44.149Z,340
2018-09-08T05:31:45.564Z,352
2018-09-08T05:32:47.729Z,360
2018-09-08T05:33:49.124Z,364
2018-09-08T05:34:50.541Z,376
2018-09-08T05:35:51.932Z,388
2018-09-08T05:36:54.135Z,392
2018-09-08T05:37:55.523Z,400
2018-09-08T05:38:56.957Z,408
2018-09-08T05:39:58.347Z,416
2018-09-08T05:40:59.737Z,424
2018-09-08T05:42:01.408Z,432
2018-09-08T05:43:02.858Z,440
2018-09-08T05:44:04.222Z,452
2018-09-08T05:45:05.844Z,456
2018-09-08T05:46:07.264Z,464
2018-09-08T05:47:08.669Z,468
2018-09-08T05:48:10.058Z,476
2018-09-08T05:49:11.767Z,484
2018-09-08T05:50:13.521Z,496
2018-09-08T05:51:15.540Z,500
2018-09-08T05:52:17.826Z,504
2018-09-08T05:53:19.748Z,512
2018-09-08T05:54:21.528Z,524
2018-09-08T05:55:22.996Z,524
2018-09-08T05:56:24.386Z,536
2018-09-08T05:57:25.830Z,540
2018-09-08T05:58:27.295Z,548
2018-09-08T05:59:28.639Z,556
2018-09-08T06:00:30.028Z,560
2018-09-08T06:01:31.452Z,572
2018-09-08T06:02:32.858Z,576
2018-09-08T06:03:34.254Z,580
2018-09-08T06:04:35.669Z,588
2018-09-08T06:05:37.302Z,596
2018-09-08T06:06:38.692Z,604
2018-09-08T06:07:40.170Z,612
2018-09-08T06:08:41.560Z,620
2018-09-08T06:09:42.996Z,628
2018-09-08T06:10:44.411Z,628
2018-09-08T06:11:45.795Z,636
2018-09-08T06:12:47.278Z,640
2018-09-08T06:13:48.689Z,644
2018-09-08T06:14:50.079Z,648
2018-09-08T06:15:52.389Z,656
2018-09-08T06:16:53.781Z,656
2018-09-08T06:17:55.317Z,664
2018-09-08T06:18:56.735Z,668
2018-09-08T06:19:58.204Z,676
2018-09-08T06:20:59.626Z,680
2018-09-08T06:22:01.122Z,684
2018-09-08T06:23:02.499Z,684
2018-09-08T06:24:03.918Z,688
2018-09-08T06:25:05.353Z,692
2018-09-08T06:26:06.772Z,692
2018-09-08T06:27:08.256Z,696
2018-09-08T06:28:09.707Z,700
2018-09-08T06:29:11.185Z,704
2018-09-08T06:30:12.628Z,712
2018-09-08T06:31:14.035Z,716
2018-09-08T06:32:15.487Z,720
2018-09-08T06:33:16.939Z,724
2018-09-08T06:34:19.135Z,728
2018-09-08T06:35:20.727Z,732
2018-09-08T06:36:22.045Z,740
2018-09-08T06:37:23.434Z,740
2018-09-08T06:38:24.845Z,740
2018-09-08T06:39:26.284Z,748
2018-09-08T06:40:27.852Z,764
2018-09-08T06:41:29.318Z,772
2018-09-08T06:42:30.914Z,776
2018-09-08T06:43:32.312Z,780
2018-09-08T06:44:33.718Z,784
2018-09-08T06:45:35.175Z,792
2018-09-08T06:46:36.644Z,800
2018-09-08T06:47:38.034Z,804
2018-09-08T06:48:39.510Z,816
2018-09-08T06:49:41.001Z,824
2018-09-08T06:50:42.407Z,840
2018-09-08T06:51:43.862Z,852
2018-09-08T06:52:45.258Z,868
2018-09-08T06:53:46.674Z,880
2018-09-08T06:54:48.079Z,892
2018-09-08T06:55:49.497Z,912
2018-09-08T06:56:50.937Z,932
2018-09-08T06:57:52.401Z,948
2018-09-08T06:58:53.796Z,964
2018-09-08T06:59:55.241Z,976
2018-09-08T07:00:56.635Z,992
2018-09-08T07:01:58.060Z,992
2018-09-08T07:02:59.517Z,988
2018-09-08T07:04:00.904Z,980
2018-09-08T07:05:02.362Z,984
2018-09-08T07:06:03.822Z,984
2018-09-08T07:07:05.226Z,980
2018-09-08T07:08:06.616Z,976
2018-09-08T07:09:08.032Z,996
2018-09-08T07:10:09.470Z,1016
2018-09-08T07:11:10.930Z,1036
2018-09-08T07:12:12.352Z,1072
2018-09-08T07:13:13.748Z,1108
2018-09-08T07:14:15.145Z,1152
2018-09-08T07:15:16.626Z,1192
2018-09-08T07:16:17.959Z,1216
2018-09-08T07:17:19.372Z,1236
2018-09-08T07:18:20.779Z,1240
2018-09-08T07:19:22.863Z,1252
2018-09-08T07:20:24.300Z,1268
2018-09-08T07:21:25.701Z,1292
2018-09-08T07:22:27.097Z,1316
2018-09-08T07:23:28.563Z,1332
2018-09-08T07:24:30.038Z,1376
2018-09-08T07:25:31.495Z,1440
2018-09-08T07:26:32.906Z,1524
2018-09-08T07:27:34.303Z,1612
2018-09-08T07:28:35.751Z,1696
2018-09-08T07:29:37.227Z,1740
2018-09-08T07:30:38.616Z,1768
2018-09-08T07:31:40.090Z,1756
2018-09-08T07:32:41.541Z,1788
2018-09-08T07:33:43.033Z,1812
2018-09-08T07:34:44.467Z,1824
2018-09-08T07:35:45.868Z,1824
2018-09-08T07:36:47.357Z,1840
2018-09-08T07:37:48.794Z,1852
2018-09-08T07:38:50.276Z,1868
2018-09-08T07:39:51.756Z,1872
2018-09-08T07:40:53.156Z,1860
2018-09-08T07:41:54.566Z,1856
2018-09-08T07:42:56.013Z,1884
2018-09-08T07:43:57.407Z,1884
2018-09-08T07:44:58.866Z,1900
2018-09-08T07:46:00.307Z,1904
2018-09-08T07:47:01.656Z,1940
2018-09-08T07:48:03.055Z,1972
2018-09-08T07:49:04.482Z,2004
2018-09-08T07:50:05.875Z,1996
2018-09-08T07:51:07.327Z,2012
2018-09-08T07:52:08.728Z,2020
2018-09-08T07:53:10.356Z,2052
2018-09-08T07:54:11.760Z,2076
2018-09-08T07:55:13.149Z,2132
2018-09-08T07:56:14.658Z,2156
2018-09-08T07:57:16.011Z,2168
2018-09-08T07:58:17.439Z,2132
2018-09-08T07:59:18.910Z,2080
2018-09-08T08:00:20.288Z,2032
2018-09-08T08:01:21.732Z,2068
2018-09-08T08:02:23.135Z,2088
2018-09-08T08:03:24.582Z,2176
2018-09-08T08:04:25.983Z,2292
2018-09-08T08:05:27.403Z,2388
2018-09-08T08:06:29.001Z,2424
2018-09-08T08:07:30.475Z,2460
2018-09-08T08:08:31.955Z,2444
2018-09-08T08:09:33.433Z,2504
2018-09-08T08:10:34.872Z,2568
2018-09-08T08:11:36.269Z,2608
2018-09-08T08:12:37.675Z,2708
2018-09-08T08:13:39.070Z,2788
2018-09-08T08:14:40.539Z,2724
2018-09-08T08:15:41.911Z,2732
2018-09-08T08:16:43.375Z,2756
2018-09-08T08:17:44.767Z,2720
2018-09-08T08:18:46.162Z,2828
2018-09-08T08:19:47.556Z,2896
2018-09-08T08:20:49.021Z,2972
2018-09-08T08:21:50.487Z,3064
2018-09-08T08:22:51.915Z,3196
2018-09-08T08:23:53.348Z,3044
2018-09-08T08:24:54.829Z,3092
2018-09-08T08:25:56.225Z,3380
2018-09-08T08:26:57.620Z,3492
2018-09-08T08:27:59.058Z,3528
2018-09-08T08:29:00.494Z,3268
2018-09-08T08:30:01.969Z,3364
2018-09-08T08:31:03.410Z,3320
2018-09-08T08:32:04.806Z,3556
2018-09-08T08:33:06.223Z,3544
2018-09-08T08:34:07.620Z,3356
2018-09-08T08:35:09.018Z,3620
2018-09-08T08:36:12.899Z,3568
2018-09-08T08:37:14.343Z,3748
2018-09-08T08:38:15.691Z,3440
2018-09-08T08:39:17.148Z,3480
2018-09-08T08:40:18.542Z,3260
2018-09-08T08:41:20.020Z,3216
2018-09-08T08:42:21.421Z,2936
2018-09-08T08:43:22.911Z,2668
2018-09-08T08:44:24.249Z,2620
2018-09-08T08:45:25.665Z,3164
2018-09-08T08:46:27.092Z,3528
2018-09-08T08:47:28.509Z,3756
2018-09-08T08:48:29.924Z,3228
2018-09-08T08:49:31.392Z,3572
2018-09-08T08:50:32.803Z,3936
2018-09-08T08:51:34.265Z,4156
2018-09-08T08:52:35.746Z,4916
2018-09-08T08:53:37.060Z,5076
2018-09-08T08:54:38.448Z,5268
2018-09-08T08:55:39.871Z,5500
2018-09-08T08:56:41.332Z,5732
2018-09-08T08:57:42.803Z,5576
2018-09-08T08:58:44.204Z,6104
2018-09-08T08:59:45.602Z,6828
2018-09-08T09:00:47.017Z,7564
2018-09-08T09:01:48.452Z,7676
2018-09-08T09:02:49.899Z,8604
2018-09-08T09:03:51.449Z,9340
2018-09-08T09:04:52.964Z,7084
2018-09-08T09:05:54.364Z,8104
2018-09-08T09:06:55.769Z,9896
2018-09-08T09:07:57.160Z,9044
2018-09-08T09:08:58.558Z,6520
2018-09-08T09:10:00.005Z,11312
2018-09-08T09:11:01.428Z,14896
2018-09-08T09:12:02.873Z,15788
2018-09-08T09:13:04.475Z,12528
2018-09-08T09:14:05.664Z,14756
2018-09-08T09:15:07.421Z,23040
2018-09-08T09:16:08.524Z,14396
2018-09-08T09:17:09.922Z,6992
2018-09-08T09:18:11.361Z,6652
2018-09-08T09:19:12.760Z,6736
2018-09-08T09:20:14.171Z,6824
2018-09-08T09:21:15.582Z,6096
2018-09-08T09:22:16.994Z,7076
2018-09-08T09:23:18.787Z,6640
2018-09-08T09:24:20.244Z,6660
2018-09-08T09:25:21.288Z,6624
2018-09-08T09:26:22.705Z,6092
2018-09-08T09:27:24.123Z,6604
2018-09-08T09:28:25.551Z,6776
2018-09-08T09:29:26.923Z,7032
2018-09-08T09:30:28.337Z,7032
2018-09-08T09:31:29.738Z,7144
2018-09-08T09:32:31.149Z,7124
2018-09-08T09:33:32.545Z,6876
2018-09-08T09:34:33.987Z,7208
2018-09-08T09:35:35.386Z,7544
2018-09-08T09:36:36.784Z,7300
2018-09-08T09:37:38.179Z,7620
2018-09-08T09:38:39.589Z,7688
2018-09-08T09:39:41.019Z,7740
2018-09-08T09:40:42.518Z,8140
2018-09-08T09:41:43.914Z,8288
2018-09-08T09:42:45.386Z,5076
2018-09-08T09:43:46.782Z,8288
2018-09-08T09:44:48.179Z,8504
2018-09-08T09:45:49.614Z,8936
2018-09-08T09:46:51.066Z,4564
2018-09-08T09:47:52.469Z,10596
2018-09-08T09:48:53.889Z,10848
2018-09-08T09:49:55.312Z,5868
2018-09-08T09:50:56.722Z,10544
2018-09-08T09:51:58.119Z,10792
2018-09-08T09:52:59.580Z,11316
2018-09-08T09:54:00.953Z,11164
2018-09-08T09:55:02.368Z,7360
2018-09-08T09:56:03.782Z,4432
2018-09-08T09:57:05.164Z,4296
2018-09-08T09:58:06.575Z,4820
2018-09-08T09:59:07.975Z,5308
2018-09-08T10:00:09.372Z,12044
2018-09-08T10:01:10.807Z,6548
2018-09-08T10:02:12.174Z,5036
2018-09-08T10:03:13.666Z,4404
2018-09-08T10:04:15.072Z,4612
2018-09-08T10:05:16.475Z,4468
2018-09-08T10:06:17.910Z,5100
2018-09-08T10:07:19.307Z,4364
2018-09-08T10:08:20.704Z,4292
2018-09-08T10:09:22.125Z,4996
2018-09-08T10:10:23.532Z,4528
2018-09-08T10:11:24.926Z,3968
2018-09-08T10:12:26.323Z,3904
2018-09-08T10:13:27.788Z,4068
2018-09-08T10:14:29.226Z,4504
2018-09-08T10:15:30.652Z,5092
2018-09-08T10:16:32.123Z,5572
2018-09-08T10:17:33.563Z,5608
2018-09-08T10:18:35.031Z,4436
2018-09-08T10:19:36.454Z,3920
2018-09-08T10:20:37.893Z,3568
2018-09-08T10:21:39.327Z,3784
2018-09-08T10:22:40.723Z,4132
2018-09-08T10:23:53.421Z,5196
2018-09-08T10:24:43.599Z,4296
2018-09-08T10:25:45.046Z,16384
2018-09-08T10:26:46.521Z,16480
2018-09-08T10:27:47.948Z,16224
2018-09-08T10:28:49.348Z,11172
2018-09-08T10:29:51.161Z,10972
2018-09-08T10:30:52.160Z,16480
2018-09-08T10:31:53.598Z,4636
2018-09-08T10:32:55.008Z,4452
2018-09-08T10:33:56.435Z,4504
2018-09-08T10:34:57.923Z,13132
2018-09-08T10:35:59.374Z,6200
2018-09-08T10:37:00.821Z,5496
2018-09-08T10:38:02.212Z,13776
2018-09-08T10:39:03.785Z,4876
2018-09-08T10:40:05.189Z,17312
2018-09-08T10:41:06.561Z,4560
2018-09-08T10:42:08.598Z,5492
2018-09-08T10:43:10.002Z,4664
2018-09-08T10:44:11.459Z,4588
2018-09-08T10:45:12.854Z,4356
2018-09-08T10:46:14.311Z,4612
2018-09-08T10:47:15.772Z,17664
2018-09-08T10:48:17.190Z,16736
2018-09-08T10:49:18.592Z,16768
2018-09-08T10:50:20.053Z,16896
2018-09-08T10:51:21.499Z,13276
2018-09-08T10:52:22.928Z,17248
2018-09-08T10:53:24.375Z,17504
2018-09-08T10:54:25.793Z,17888
2018-09-08T10:55:27.194Z,18368
2018-09-08T10:56:28.625Z,17664
2018-09-08T10:57:30.032Z,17664
2018-09-08T10:58:31.444Z,18080
2018-09-08T10:59:32.894Z,18496
2018-09-08T11:00:34.342Z,18912
2018-09-08T11:01:35.816Z,19232
2018-09-08T11:02:37.323Z,18944
2018-09-08T11:03:38.605Z,18496
2018-09-08T11:04:40.071Z,18112
2018-09-08T11:05:41.471Z,18144
2018-09-08T11:06:42.870Z,18336
2018-09-08T11:07:44.338Z,18272
2018-09-08T11:08:45.794Z,18432
2018-09-08T11:09:47.195Z,18848
2018-09-08T11:10:48.768Z,19744
2018-09-08T11:11:50.212Z,17696
2018-09-08T11:12:51.612Z,5892
2018-09-08T11:13:53.040Z,5468
2018-09-08T11:14:54.437Z,6208
2018-09-08T11:15:55.893Z,4424
2018-09-08T11:16:57.284Z,4004
2018-09-08T11:17:58.791Z,13404
2018-09-08T11:19:00.269Z,3404
2018-09-08T11:20:01.700Z,3352
2018-09-08T11:21:03.103Z,3760
2018-09-08T11:22:04.528Z,3856
2018-09-08T11:23:05.931Z,15804
2018-09-08T11:24:07.351Z,5324
2018-09-08T11:25:08.747Z,5628
2018-09-08T11:26:10.219Z,19840
2018-09-08T11:27:11.631Z,19264
2018-09-08T11:28:13.047Z,19520
2018-09-08T11:29:14.460Z,19680
2018-09-08T11:30:15.912Z,9268
2018-09-08T11:31:18.035Z,18144
2018-09-08T11:32:19.441Z,18368
2018-09-08T11:33:20.865Z,18432
2018-09-08T11:34:22.304Z,18400
2018-09-08T11:35:23.718Z,18752
2018-09-08T11:36:25.163Z,18400
2018-09-08T11:37:26.648Z,19008
2018-09-08T11:38:28.141Z,19040
2018-09-08T11:39:29.500Z,4524
2018-09-08T11:40:32.099Z,5364
2018-09-08T11:41:33.536Z,19584
2018-09-08T11:42:34.939Z,19520
2018-09-08T11:43:36.353Z,19168
2018-09-08T11:44:37.819Z,18944
2018-09-08T11:45:39.186Z,18592
2018-09-08T11:46:40.625Z,18336
2018-09-08T11:47:42.065Z,18592
2018-09-08T11:48:43.514Z,18560
2018-09-08T11:49:44.965Z,18752
2018-09-08T11:50:46.380Z,18656
2018-09-08T11:51:48.041Z,18848
2018-09-08T11:52:49.481Z,18976
2018-09-08T11:53:50.885Z,18816
2018-09-08T11:54:52.345Z,18720
2018-09-08T11:55:53.828Z,18464
2018-09-08T11:56:55.288Z,18496
2018-09-08T11:57:56.689Z,18592
2018-09-08T11:58:58.131Z,18560
2018-09-08T11:59:59.617Z,18656
2018-09-08T12:01:01.087Z,18496
2018-09-08T12:02:02.569Z,18176
2018-09-08T12:03:04.061Z,18400
2018-09-08T12:04:05.349Z,18496
2018-09-08T12:05:06.825Z,18464
2018-09-08T12:06:08.220Z,18400
2018-09-08T12:07:09.669Z,18368
2018-09-08T12:08:11.198Z,18464
2018-09-08T12:09:12.702Z,18432
2018-09-08T12:10:14.178Z,18272
2018-09-08T12:11:15.589Z,17920
2018-09-08T12:12:17.086Z,18144
2018-09-08T12:13:18.515Z,18176
2018-09-08T12:14:19.955Z,17984
2018-09-08T12:15:21.379Z,18400
2018-09-08T12:16:22.877Z,17856
2018-09-08T12:17:24.365Z,17856
2018-09-08T12:18:25.776Z,17568
2018-09-08T12:19:27.256Z,17728
2018-09-08T12:20:28.684Z,17824
2018-09-08T12:21:30.178Z,17664
2018-09-08T12:22:31.589Z,17536
2018-09-08T12:23:32.986Z,17472
2018-09-08T12:24:34.385Z,17536
2018-09-08T12:25:35.794Z,17408
2018-09-08T12:26:37.209Z,17440
2018-09-08T12:27:38.665Z,17376
2018-09-08T12:28:40.103Z,17344
2018-09-08T12:29:41.515Z,17344
2018-09-08T12:30:42.941Z,17216
2018-09-08T12:31:44.369Z,16928
2018-09-08T12:32:45.847Z,16448
2018-09-08T12:33:47.245Z,16864
2018-09-08T12:34:48.689Z,16736
2018-09-08T12:35:50.145Z,16800
2018-09-08T12:36:51.543Z,3344
2018-09-08T12:37:52.961Z,17120
2018-09-08T12:38:54.421Z,17056
2018-09-08T12:39:55.825Z,16832
2018-09-08T12:40:57.261Z,16576
2018-09-08T12:41:58.728Z,16512
2018-09-08T12:43:00.197Z,16416
2018-09-08T12:44:01.687Z,16352
2018-09-08T12:45:03.090Z,16416
2018-09-08T12:46:04.494Z,16576
2018-09-08T12:47:05.915Z,14152
2018-09-08T12:48:07.429Z,16448
2018-09-08T12:49:08.833Z,17024
2018-09-08T12:50:10.235Z,16448
2018-09-08T12:51:11.640Z,6272
2018-09-08T12:52:13.105Z,10704
2018-09-08T12:53:14.560Z,14464
2018-09-08T12:54:16.343Z,16416
2018-09-08T12:55:18.031Z,16896
2018-09-08T12:56:19.590Z,17312
2018-09-08T12:57:21.758Z,17216
2018-09-08T12:58:23.577Z,16672
2018-09-08T12:59:24.985Z,12696
2018-09-08T13:00:26.497Z,16736
2018-09-08T13:01:29.062Z,14624
2018-09-08T13:02:31.303Z,16512
2018-09-08T13:03:32.797Z,16448
2018-09-08T13:04:34.257Z,16192
2018-09-08T13:05:36.147Z,15584
2018-09-08T13:06:37.592Z,15268
2018-09-08T13:07:39.184Z,15084
2018-09-08T13:08:40.591Z,14736
2018-09-08T13:09:42.910Z,14556
2018-09-08T13:10:44.416Z,14396
2018-09-08T13:11:45.898Z,14400
2018-09-08T13:12:47.509Z,14464
2018-09-08T13:13:49.163Z,14480
2018-09-08T13:14:50.578Z,14256
2018-09-08T13:15:52.007Z,12940
2018-09-08T13:16:53.415Z,11048
2018-09-08T13:17:54.873Z,9808
2018-09-08T13:18:56.345Z,9960
2018-09-08T13:20:00.468Z,10772
2018-09-08T13:21:03.466Z,11248
2018-09-08T13:22:04.871Z,11592
2018-09-08T13:23:10.926Z,9828
2018-09-08T13:24:13.631Z,13620
2018-09-08T13:25:15.222Z,12652
2018-09-08T13:26:17.141Z,9968
2018-09-08T13:27:19.108Z,11424
2018-09-08T13:28:22.804Z,10840
2018-09-08T13:29:25.729Z,12252
2018-09-08T13:30:33.651Z,11440
2018-09-08T13:31:35.758Z,9940
2018-09-08T13:32:39.017Z,7420
2018-09-08T13:33:43.695Z,9048
2018-09-08T13:34:49.177Z,11620
2018-09-08T13:35:52.054Z,12476
2018-09-08T13:36:54.149Z,13360
2018-09-08T13:37:55.994Z,10004
2018-09-08T13:38:58.105Z,7128
2018-09-08T13:40:03.032Z,4828
2018-09-08T13:41:04.205Z,4136
2018-09-08T13:42:05.847Z,4624
2018-09-08T13:43:08.770Z,8332
2018-09-08T13:44:11.303Z,8000
2018-09-08T13:45:13.780Z,7868
2018-09-08T13:46:17.089Z,11204
2018-09-08T13:47:21.661Z,11064
2018-09-08T13:48:25.252Z,11840
2018-09-08T13:49:29.230Z,12052
2018-09-08T13:50:33.419Z,12492
2018-09-08T13:51:50.108Z,9912
2018-09-08T13:52:54.304Z,9128
2018-09-08T13:53:56.318Z,9804
2018-09-08T13:54:58.383Z,10440
2018-09-08T13:55:59.942Z,9000
2018-09-08T13:57:01.944Z,7996
2018-09-08T13:58:03.387Z,10196
2018-09-08T13:59:04.797Z,10548
2018-09-08T14:00:06.364Z,10564
2018-09-08T14:01:07.800Z,11044
2018-09-08T14:02:09.643Z,10772
2018-09-08T14:03:12.246Z,9592
2018-09-08T14:04:14.647Z,8212
2018-09-08T14:05:15.975Z,9680
2018-09-08T14:06:17.648Z,4104
2018-09-08T14:07:21.760Z,4116